createdAt,value
2019-04-05T00:00:18.500Z,12.65
2019-04-05T00:03:05.230Z,12.05
2019-04-05T00:05:51.523Z,13.90
2019-04-05T00:08:37.933Z,11.83
2019-04-05T00:11:24.355Z,11.35
2019-04-05T00:14:10.651Z,10.60
2019-04-05T00:16:56.980Z,15.93
2019-04-05T00:19:43.499Z,14.95
2019-04-05T00:22:29.725Z,12.23
2019-04-05T00:25:16.027Z,11.22
2019-04-05T00:28:03.948Z,11.10
2019-04-05T00:30:50.187Z,11.60
2019-04-05T00:33:36.564Z,12.18
2019-04-05T00:36:23.295Z,10.60
2019-04-05T00:39:09.483Z,10.32
2019-04-05T00:41:55.692Z,14.85
2019-04-05T00:44:42.271Z,10.38
2019-04-05T00:47:28.568Z,11.75
2019-04-05T00:50:15.216Z,11.22
2019-04-05T00:53:01.474Z,11.45
2019-04-05T00:55:48.207Z,11.90
2019-04-05T00:58:34.263Z,10.60
2019-04-05T01:01:20.681Z,12.18
2019-04-05T01:04:07.119Z,12.15
2019-04-05T01:06:53.320Z,10.98
2019-04-05T01:09:39.859Z,11.63
2019-04-05T01:12:26.537Z,13.00
2019-04-05T01:15:13.463Z,13.90
2019-04-05T01:18:01.235Z,10.90
2019-04-05T01:20:48.896Z,10.70
2019-04-05T01:23:35.336Z,11.75
2019-04-05T01:26:23.505Z,10.98
2019-04-05T01:29:10.428Z,10.72
2019-04-05T01:31:56.916Z,12.00
2019-04-05T01:34:44.423Z,10.43
2019-04-05T01:37:30.583Z,11.78
2019-04-05T01:40:16.867Z,12.10
2019-04-05T01:43:03.615Z,10.98
2019-04-05T01:45:54.025Z,11.65
2019-04-05T01:48:38.451Z,10.95
2019-04-05T01:51:24.523Z,10.88
2019-04-05T01:54:10.714Z,11.15
2019-04-05T01:56:57.104Z,12.30
2019-04-05T01:59:43.101Z,15.90
2019-04-05T02:02:29.350Z,11.63
2019-04-05T02:05:16.524Z,12.82
2019-04-05T02:08:03.983Z,12.88
2019-04-05T02:10:50.005Z,13.53
2019-04-05T02:13:37.252Z,11.43
2019-04-05T02:16:23.646Z,14.95
2019-04-05T02:19:09.880Z,11.65
2019-04-05T02:21:56.424Z,11.68
2019-04-05T02:24:42.759Z,10.53
2019-04-05T02:27:29.298Z,11.08
2019-04-05T02:30:19.097Z,11.95
2019-04-05T02:33:15.275Z,12.35
2019-04-05T02:36:07.041Z,11.12
2019-04-05T02:38:53.475Z,11.12
2019-04-05T02:41:41.353Z,12.78
2019-04-05T02:44:30.506Z,13.48
2019-04-05T02:47:17.296Z,11.28
2019-04-05T02:50:03.514Z,13.30
2019-04-05T02:52:52.955Z,11.93
2019-04-05T02:55:41.745Z,12.68
2019-04-05T02:58:31.316Z,10.95
2019-04-05T03:01:17.787Z,11.83
2019-04-05T03:04:04.278Z,11.15
2019-04-05T03:06:51.749Z,13.15
2019-04-05T03:09:37.923Z,12.37
2019-04-05T03:12:24.911Z,13.55
2019-04-05T03:15:11.452Z,10.82
2019-04-05T03:17:57.508Z,10.10
2019-04-05T03:20:43.893Z,13.22
2019-04-05T03:23:33.227Z,11.80
2019-04-05T03:26:23.202Z,10.48
2019-04-05T03:29:09.947Z,11.48
2019-04-05T03:31:56.395Z,11.83
2019-04-05T03:34:43.436Z,13.08
2019-04-05T03:37:29.605Z,11.38
2019-04-05T03:40:16.922Z,9.85
2019-04-05T03:43:03.541Z,12.03
2019-04-05T03:45:50.506Z,11.73
2019-04-05T03:48:36.829Z,11.90
2019-04-05T03:51:24.142Z,12.50
2019-04-05T03:54:10.614Z,13.13
2019-04-05T03:56:58.090Z,11.45
2019-04-05T03:59:44.504Z,11.43
2019-04-05T04:02:30.718Z,12.23
2019-04-05T04:05:18.349Z,10.65
2019-04-05T04:08:05.004Z,12.30
2019-04-05T04:10:53.015Z,12.68
2019-04-05T04:13:39.256Z,10.95
2019-04-05T04:16:25.789Z,9.48
2019-04-05T04:19:12.027Z,10.78
2019-04-05T04:22:14.210Z,10.13
2019-04-05T04:25:00.579Z,11.35
2019-04-05T04:27:46.966Z,12.37
2019-04-05T04:30:34.301Z,10.78
2019-04-05T04:33:20.647Z,10.63
2019-04-05T04:36:07.249Z,12.98
2019-04-05T04:38:54.520Z,12.85
2019-04-05T04:41:41.333Z,13.50
2019-04-05T04:44:27.296Z,11.65
2019-04-05T04:47:25.546Z,13.22
2019-04-05T04:50:02.996Z,11.50
2019-04-05T04:52:49.759Z,13.62
2019-04-05T04:55:37.138Z,11.48
2019-04-05T04:58:23.895Z,13.85
2019-04-05T05:01:10.443Z,10.98
2019-04-05T05:03:56.911Z,11.20
2019-04-05T05:06:43.401Z,10.43
2019-04-05T05:09:30.223Z,11.08
2019-04-05T05:12:18.117Z,13.95
2019-04-05T05:15:05.690Z,11.93
2019-04-05T05:20:51.500Z,19.55
2019-04-05T05:23:38.688Z,14.53
2019-04-05T05:26:25.616Z,17.17
2019-04-05T05:29:12.466Z,12.63
2019-04-05T05:31:58.956Z,14.05
2019-04-05T05:34:45.588Z,15.63
2019-04-05T05:37:33.007Z,11.83
2019-04-05T05:40:33.781Z,12.18
2019-04-05T05:43:09.247Z,16.07
2019-04-05T05:45:55.803Z,12.93
2019-04-05T05:48:43.069Z,12.75
2019-04-05T05:51:29.867Z,14.20
2019-04-05T05:54:15.903Z,11.63
2019-04-05T05:57:02.303Z,13.53
2019-04-05T05:59:49.131Z,12.25
2019-04-05T06:02:38.384Z,13.20
2019-04-05T06:05:23.432Z,14.00
2019-04-05T06:08:09.794Z,11.35
2019-04-05T06:10:56.304Z,17.05
2019-04-05T06:13:42.665Z,16.37
2019-04-05T06:16:28.604Z,9.93
2019-04-05T06:19:15.763Z,9.70
2019-04-05T06:22:02.396Z,13.65
2019-04-05T06:24:48.256Z,12.13
2019-04-05T06:27:35.526Z,11.38
2019-04-05T06:30:21.944Z,14.13
2019-04-05T06:33:09.346Z,12.13
2019-04-05T06:35:55.641Z,13.25
2019-04-05T06:38:42.002Z,13.18
2019-04-05T06:41:30.360Z,11.50
2019-04-05T06:44:16.455Z,11.60
2019-04-05T06:47:02.763Z,9.73
2019-04-05T06:49:48.907Z,13.00
2019-04-05T06:52:34.700Z,15.43
2019-04-05T06:55:20.487Z,17.12
2019-04-05T06:58:10.415Z,13.78
2019-04-05T07:00:57.307Z,15.13
2019-04-05T07:03:43.799Z,10.68
2019-04-05T07:06:30.108Z,13.30
2019-04-05T07:09:16.406Z,14.43
2019-04-05T07:12:02.999Z,10.93
2019-04-05T07:14:48.841Z,14.03
2019-04-05T07:17:34.695Z,12.60
2019-04-05T07:20:23.441Z,13.38
2019-04-05T07:23:08.887Z,11.95
2019-04-05T07:25:56.443Z,12.30
2019-04-05T07:28:43.381Z,12.03
2019-04-05T07:31:29.148Z,9.58
2019-04-05T07:34:14.935Z,13.43
2019-04-05T07:37:00.816Z,11.60
2019-04-05T07:39:46.948Z,14.30
2019-04-05T07:42:33.284Z,10.70
2019-04-05T07:45:19.342Z,11.80
2019-04-05T07:48:05.795Z,12.68
2019-04-05T07:50:52.021Z,13.50
2019-04-05T07:53:37.896Z,13.20
2019-04-05T07:56:24.591Z,10.45
2019-04-05T07:59:10.720Z,15.32
2019-04-05T08:01:56.657Z,11.20
2019-04-05T08:04:43.612Z,11.73
2019-04-05T08:07:34.146Z,12.80
2019-04-05T08:10:22.197Z,14.60
2019-04-05T08:13:08.380Z,12.90
2019-04-05T08:15:55.588Z,11.45
2019-04-05T08:18:41.907Z,12.05
2019-04-05T08:21:27.906Z,14.90
2019-04-05T08:24:14.399Z,12.95
2019-04-05T08:27:00.272Z,13.05
2019-04-05T08:29:47.107Z,11.68
2019-04-05T08:32:32.856Z,11.95
2019-04-05T08:35:18.628Z,14.65
2019-04-05T08:38:04.452Z,13.35
2019-04-05T08:40:50.260Z,14.35
2019-04-05T08:43:36.831Z,13.40
2019-04-05T08:46:23.080Z,13.83
2019-04-05T08:49:11.525Z,12.75
2019-04-05T08:51:57.471Z,12.95
2019-04-05T08:54:43.816Z,12.65
2019-04-05T08:57:30.145Z,12.18
2019-04-05T09:00:17.052Z,11.60
2019-04-05T09:03:03.684Z,16.50
2019-04-05T09:05:50.240Z,15.18
2019-04-05T09:08:36.520Z,12.25
2019-04-05T09:11:22.326Z,14.68
2019-04-05T09:14:08.936Z,13.95
2019-04-05T09:16:55.306Z,12.23
2019-04-05T09:19:41.491Z,12.10
2019-04-05T09:22:27.892Z,10.63
2019-04-05T09:25:14.508Z,11.70
2019-04-05T09:28:01.710Z,14.35
2019-04-05T09:30:48.122Z,14.68
2019-04-05T09:33:34.532Z,13.18
2019-04-05T09:36:20.655Z,13.80
2019-04-05T09:39:15.036Z,10.93
2019-04-05T09:41:58.390Z,13.95
2019-04-05T09:44:44.808Z,10.98
2019-04-05T09:47:31.186Z,12.73
2019-04-05T09:50:17.602Z,12.85
2019-04-05T09:53:03.923Z,17.12
2019-04-05T09:55:50.274Z,13.83
2019-04-05T09:58:37.693Z,13.80
2019-04-05T10:01:24.037Z,12.65
2019-04-05T10:04:10.502Z,14.87
2019-04-05T10:06:56.999Z,12.65
2019-04-05T10:09:43.799Z,15.98
2019-04-05T10:12:30.091Z,14.50
2019-04-05T10:15:16.530Z,16.55
2019-04-05T10:18:02.724Z,17.82
2019-04-05T10:20:49.515Z,20.85
2019-04-05T10:23:35.905Z,14.10
2019-04-05T10:26:23.148Z,14.05
2019-04-05T10:29:10.471Z,14.23
2019-04-05T10:31:56.896Z,14.83
2019-04-05T10:34:42.663Z,14.90
2019-04-05T10:37:28.576Z,12.10
2019-04-05T10:40:16.561Z,17.45
2019-04-05T10:43:03.125Z,14.60
2019-04-05T10:45:49.179Z,15.20
2019-04-05T10:48:36.099Z,18.07
2019-04-05T10:51:22.308Z,13.58
2019-04-05T10:54:09.643Z,13.88
2019-04-05T10:56:56.298Z,15.78
2019-04-05T10:59:42.823Z,13.70
2019-04-05T11:02:29.363Z,13.43
2019-04-05T11:05:15.964Z,12.73
2019-04-05T11:08:01.964Z,15.08
2019-04-05T11:10:49.116Z,12.23
2019-04-05T11:13:36.503Z,12.73
2019-04-05T11:16:23.613Z,16.70
2019-04-05T11:19:09.950Z,15.28
2019-04-05T11:21:56.624Z,13.15
2019-04-05T11:24:42.919Z,15.45
2019-04-05T11:27:29.116Z,14.58
2019-04-05T11:30:26.985Z,15.85
2019-04-05T11:33:13.184Z,15.40
2019-04-05T11:36:00.383Z,15.28
2019-04-05T11:38:49.906Z,13.03
2019-04-05T11:41:36.749Z,12.88
2019-04-05T11:44:25.871Z,19.82
2019-04-05T11:47:12.480Z,15.60
2019-04-05T11:50:00.184Z,17.82
2019-04-05T11:52:46.480Z,18.32
2019-04-05T11:55:32.523Z,21.65
2019-04-05T11:58:18.748Z,15.93
2019-04-05T12:01:13.929Z,22.75
2019-04-05T12:04:00.211Z,18.80
2019-04-05T12:06:46.824Z,22.42
2019-04-05T12:09:34.304Z,15.70
2019-04-05T12:12:20.628Z,18.20
2019-04-05T12:15:07.411Z,17.60
2019-04-05T12:17:53.876Z,18.37
2019-04-05T12:20:49.118Z,17.45
2019-04-05T12:23:28.183Z,20.48
2019-04-05T12:26:15.640Z,21.25
2019-04-05T12:29:02.142Z,18.15
2019-04-05T12:31:48.515Z,18.17
2019-04-05T12:37:23.771Z,18.17
2019-04-05T12:40:11.333Z,19.67
2019-04-05T12:42:58.647Z,27.45
2019-04-05T12:45:45.307Z,39.88
2019-04-05T12:48:31.802Z,31.65
2019-04-05T12:51:18.119Z,40.73
2019-04-05T12:54:04.655Z,43.70
2019-04-05T12:56:53.965Z,32.63
2019-04-05T12:59:38.891Z,32.13
2019-04-05T13:02:33.401Z,35.30
2019-04-05T13:05:13.255Z,46.80
2019-04-05T13:07:59.761Z,41.92
2019-04-05T13:10:47.317Z,28.92
2019-04-05T13:17:11.040Z,30.77
2019-04-05T13:19:25.112Z,24.55
2019-04-05T13:22:11.228Z,26.25
2019-04-05T13:24:57.605Z,21.80
2019-04-05T13:27:43.650Z,25.75
2019-04-05T13:30:30.143Z,24.75
2019-04-05T13:33:16.402Z,25.10
2019-04-05T13:36:02.860Z,27.10
2019-04-05T13:38:54.893Z,28.07
2019-04-05T13:41:37.148Z,44.03
2019-04-05T13:44:23.621Z,33.28
2019-04-05T13:47:09.999Z,30.43
2019-04-05T13:49:56.507Z,32.35
2019-04-05T13:52:45.040Z,25.45
2019-04-05T13:55:31.568Z,21.07
2019-04-05T13:58:18.040Z,24.92
2019-04-05T14:01:04.527Z,26.90
2019-04-05T14:03:50.994Z,24.02
2019-04-05T14:06:37.343Z,24.05
2019-04-05T14:09:23.300Z,20.95
2019-04-05T14:12:10.203Z,24.77
2019-04-05T14:14:57.059Z,23.30
2019-04-05T14:17:44.937Z,24.80
2019-04-05T14:20:31.595Z,18.67
2019-04-05T14:23:17.880Z,19.07
2019-04-05T14:26:04.497Z,20.90
2019-04-05T14:28:52.993Z,18.02
2019-04-05T14:31:38.821Z,20.12
2019-04-05T14:34:25.184Z,22.15
2019-04-05T14:37:11.748Z,21.45
2019-04-05T14:39:57.936Z,17.62
2019-04-05T14:42:44.894Z,23.55
2019-04-05T14:45:32.059Z,17.90
2019-04-05T14:48:18.415Z,18.52
2019-04-05T14:51:04.795Z,21.02
2019-04-05T14:53:51.140Z,17.32
2019-04-05T14:56:37.452Z,18.60
2019-04-05T14:59:23.816Z,19.65
2019-04-05T15:02:10.114Z,21.17
2019-04-05T15:04:56.520Z,19.07
2019-04-05T15:07:42.732Z,18.50
2019-04-05T15:10:28.770Z,22.45
2019-04-05T15:13:15.180Z,21.05
2019-04-05T15:16:01.775Z,23.47
2019-04-05T15:18:48.059Z,21.23
2019-04-05T15:21:34.989Z,20.27
2019-04-05T15:24:22.693Z,26.17
2019-04-05T15:27:09.131Z,25.32
2019-04-05T15:29:56.267Z,26.00
2019-04-05T15:32:43.339Z,26.20
2019-04-05T15:35:29.743Z,25.43
2019-04-05T15:38:16.140Z,27.32
2019-04-05T15:41:02.097Z,26.02
2019-04-05T15:43:49.231Z,29.63
2019-04-05T15:46:35.511Z,25.65
2019-04-05T15:49:22.299Z,22.05
2019-04-05T15:52:18.712Z,32.23
2019-04-05T15:54:58.053Z,29.52
2019-04-05T15:57:44.449Z,27.98
2019-04-05T16:00:45.164Z,34.50
2019-04-05T16:03:33.108Z,35.52
2019-04-05T16:06:20.470Z,32.13
2019-04-05T16:09:08.718Z,30.32
2019-04-05T16:11:55.803Z,32.23
2019-04-05T16:14:42.221Z,35.60
2019-04-05T16:17:28.612Z,38.92
2019-04-05T16:20:15.165Z,33.18
2019-04-05T16:23:01.349Z,27.15
2019-04-05T16:25:47.972Z,32.17
2019-04-05T16:28:34.233Z,34.65
2019-04-05T16:31:20.535Z,32.03
2019-04-05T16:34:06.583Z,30.10
2019-04-05T16:36:52.907Z,33.53
2019-04-05T16:39:39.335Z,40.80
2019-04-05T16:42:25.753Z,32.55
2019-04-05T16:45:12.403Z,37.05
2019-04-05T16:47:58.427Z,35.25
2019-04-05T16:50:44.779Z,43.40
2019-04-05T16:53:31.101Z,53.25
2019-04-05T16:56:17.439Z,35.05
2019-04-05T16:59:04.203Z,34.83
2019-04-05T17:01:50.656Z,34.73
2019-04-05T17:04:36.546Z,32.45
2019-04-05T17:07:23.008Z,29.98
2019-04-05T17:10:09.573Z,28.30
2019-04-05T17:12:55.851Z,28.40
2019-04-05T17:15:42.224Z,29.10
2019-04-05T17:18:28.553Z,28.38
2019-04-05T17:21:15.074Z,28.80
2019-04-05T17:24:01.702Z,28.02
2019-04-05T17:26:49.021Z,26.30
2019-04-05T17:29:35.475Z,24.43
2019-04-05T17:32:21.679Z,24.85
2019-04-05T17:35:07.811Z,28.38
2019-04-05T17:37:54.262Z,23.62
2019-04-05T17:40:40.569Z,22.25
2019-04-05T17:43:27.247Z,25.23
2019-04-05T17:46:13.567Z,21.30
2019-04-05T17:48:59.909Z,23.62
2019-04-05T17:51:46.434Z,20.85
2019-04-05T17:54:32.672Z,19.60
2019-04-05T17:57:19.522Z,23.87
2019-04-05T18:00:08.458Z,25.17
2019-04-05T18:02:54.651Z,27.13
2019-04-05T18:05:40.980Z,23.42
2019-04-05T18:08:28.629Z,25.50
2019-04-05T18:11:15.208Z,28.67
2019-04-05T18:14:02.367Z,24.02
2019-04-05T18:16:48.676Z,26.17
2019-04-05T18:19:34.763Z,24.92
2019-04-05T18:22:20.945Z,23.87
2019-04-05T18:25:07.543Z,21.37
2019-04-05T18:27:53.811Z,27.50
2019-04-05T18:30:40.370Z,23.12
2019-04-05T18:33:26.682Z,22.80
2019-04-05T18:36:13.177Z,21.77
2019-04-05T18:38:59.600Z,22.42
2019-04-05T18:41:45.711Z,24.37
2019-04-05T18:44:31.872Z,24.75
2019-04-05T18:47:18.248Z,22.07
2019-04-05T18:50:04.695Z,24.57
2019-04-05T18:52:51.228Z,21.97
2019-04-05T18:55:38.630Z,20.60
2019-04-05T18:58:25.209Z,20.27
2019-04-05T19:01:11.496Z,22.67
2019-04-05T19:03:57.796Z,23.20
2019-04-05T19:06:44.299Z,30.05
2019-04-05T19:09:30.693Z,33.25
2019-04-05T19:12:17.044Z,36.23
2019-04-05T19:15:04.474Z,33.65
2019-04-05T19:17:50.427Z,27.37
2019-04-05T19:20:37.096Z,26.45
2019-04-05T19:23:23.864Z,27.93
2019-04-05T19:26:11.297Z,39.10
2019-04-05T19:28:57.805Z,74.12
2019-04-05T19:48:34.894Z,71.65
2019-04-05T19:51:20.471Z,64.30
2019-04-05T19:54:07.316Z,50.73
2019-04-05T19:56:54.798Z,47.38
2019-04-05T19:59:41.224Z,59.73
2019-04-05T20:02:31.434Z,50.05
2019-04-05T20:05:17.890Z,40.45
2019-04-05T20:08:04.136Z,50.00
2019-04-05T20:10:50.888Z,39.45
2019-04-05T20:13:41.310Z,53.02
2019-04-05T20:16:28.764Z,51.20
2019-04-05T20:19:14.871Z,38.25
2019-04-05T20:22:01.350Z,35.78
2019-04-05T20:24:48.680Z,30.57
2019-04-05T20:27:35.380Z,36.13
2019-04-05T20:30:21.739Z,33.92
2019-04-05T20:33:08.303Z,44.48
2019-04-05T20:35:54.323Z,35.50
2019-04-05T20:38:40.507Z,38.73
2019-04-05T20:41:26.697Z,30.30
2019-04-05T20:44:13.027Z,41.77
2019-04-05T20:46:59.133Z,33.35
2019-04-05T20:49:45.735Z,31.02
2019-04-05T20:52:32.148Z,38.60
2019-04-05T20:55:18.715Z,34.43
2019-04-05T20:58:05.124Z,30.02
2019-04-05T21:00:51.471Z,36.45
2019-04-05T21:03:37.968Z,31.27
2019-04-05T21:06:24.204Z,29.85
2019-04-05T21:09:10.305Z,29.15
2019-04-05T21:11:57.260Z,32.85
2019-04-05T21:14:43.563Z,31.60
2019-04-05T21:17:29.915Z,30.57
2019-04-05T21:20:16.901Z,58.90
2019-04-05T21:23:03.092Z,81.28
2019-04-05T21:25:49.451Z,61.20
2019-04-05T21:28:35.639Z,73.60
2019-04-05T21:31:21.510Z,58.92
2019-04-05T21:34:07.895Z,55.78
2019-04-05T21:36:53.992Z,54.53
2019-04-05T21:39:40.587Z,50.90
2019-04-05T21:42:27.077Z,56.20
2019-04-05T21:45:13.595Z,46.45
2019-04-05T21:47:59.867Z,55.58
2019-04-05T21:50:46.443Z,43.78
2019-04-05T21:53:35.415Z,42.25
2019-04-05T21:56:22.083Z,46.13
2019-04-05T21:59:08.567Z,40.00
2019-04-05T22:01:54.492Z,45.05
2019-04-05T22:04:40.898Z,37.93
2019-04-05T22:07:27.796Z,35.03
2019-04-05T22:10:14.061Z,37.75
2019-04-05T22:13:00.375Z,37.45
2019-04-05T22:15:46.935Z,35.83
2019-04-05T22:18:34.143Z,32.05
2019-04-05T22:21:20.526Z,33.60
2019-04-05T22:24:07.168Z,42.38
2019-04-05T22:26:53.462Z,32.90
2019-04-05T22:29:39.783Z,33.73
2019-04-05T22:32:26.332Z,29.70
2019-04-05T22:35:12.684Z,28.27
2019-04-05T22:37:58.996Z,31.85
2019-04-05T22:40:47.034Z,29.02
2019-04-05T22:43:46.720Z,26.27
2019-04-05T22:46:41.613Z,30.50
2019-04-05T22:49:29.329Z,26.93
2019-04-05T22:52:15.471Z,27.50
2019-04-05T22:55:10.405Z,24.10
2019-04-05T22:57:50.067Z,26.05
2019-04-05T23:00:36.383Z,22.70
2019-04-05T23:03:22.705Z,26.57
2019-04-05T23:06:08.977Z,21.02
2019-04-05T23:08:55.689Z,19.32
2019-04-05T23:11:41.998Z,20.32
2019-04-05T23:14:28.239Z,24.05
2019-04-05T23:17:14.324Z,22.13
2019-04-05T23:20:01.498Z,21.35
2019-04-05T23:22:47.924Z,23.83
2019-04-05T23:25:34.385Z,19.95
2019-04-05T23:28:20.652Z,20.37
2019-04-05T23:31:07.211Z,21.33
2019-04-05T23:33:53.623Z,24.70
2019-04-05T23:36:39.914Z,20.50
2019-04-05T23:39:26.187Z,21.95
2019-04-05T23:42:12.919Z,20.70
2019-04-05T23:44:58.745Z,18.10
2019-04-05T23:47:45.137Z,16.87
2019-04-05T23:50:31.499Z,16.20
2019-04-05T23:53:17.881Z,18.57
2019-04-05T23:56:04.223Z,18.90
2019-04-05T23:58:50.664Z,17.05
